Time;durP1;ratioP1;P1;durP2;ratioP2;P2;SDS_P1;SDS_P2;PMS_P1;PMS_P2;Temp;Humidity;BMP_temperature;BMP_pressure;BME280_temperature;BME280_humidity;BME280_pressure;Samples;Min_cycle;Max_cycle;Signal;HPM_P1;HPM_P2
2021/10/07 00:01:19;;;;;;;2.83;1.77;;;;;;;;;;4947824;28;20031;-84
2021/10/07 00:03:45;;;;;;;3.30;1.80;;;;;;;;;;4947866;28;20061;-84
2021/10/07 00:06:12;;;;;;;2.47;1.92;;;;;;;;;;4950695;28;20130;-85
2021/10/07 00:08:38;;;;;;;2.15;1.60;;;;;;;;;;4951960;28;20073;-87
2021/10/07 00:11:05;;;;;;;2.10;1.60;;;;;;;;;;4948497;28;20135;-86
2021/10/07 00:13:31;;;;;;;3.25;1.90;;;;;;;;;;4948628;28;20066;-87
2021/10/07 00:15:58;;;;;;;2.60;1.80;;;;;;;;;;4949577;28;20451;-85
2021/10/07 00:18:24;;;;;;;2.70;1.70;;;;;;;;;;4952246;28;20058;-84
2021/10/07 00:20:50;;;;;;;2.78;1.77;;;;;;;;;;4951236;28;20440;-84
2021/10/07 00:23:22;;;;;;;4.03;1.80;;;;;;;;;;4946422;28;20100;-84
2021/10/07 00:25:49;;;;;;;4.38;1.90;;;;;;;;;;4946082;28;20059;-84
2021/10/07 00:28:15;;;;;;;1.85;1.50;;;;;;;;;;4952114;28;20568;-84
2021/10/07 00:30:42;;;;;;;2.40;1.55;;;;;;;;;;4946698;28;20071;-86
2021/10/07 00:33:16;;;;;;;3.25;2.03;;;;;;;;;;4951092;28;20055;-82
2021/10/07 00:41:03;;;;;;;3.58;2.13;;;;;;;;;;4945430;28;20059;-84
2021/10/07 00:43:29;;;;;;;2.75;1.90;;;;;;;;;;4949425;28;20091;-83
2021/10/07 00:45:59;;;;;;;4.00;1.80;;;;;;;;;;4944512;28;20073;-84
2021/10/07 00:48:26;;;;;;;3.42;1.88;;;;;;;;;;4947874;29;20457;-84
2021/10/07 00:51:01;;;;;;;2.67;1.90;;;;;;;;;;4944574;28;20066;-85
2021/10/07 00:53:27;;;;;;;3.42;1.98;;;;;;;;;;4944882;28;21262;-84
2021/10/07 00:55:54;;;;;;;2.58;1.88;;;;;;;;;;4952023;28;20043;-83
2021/10/07 00:58:20;;;;;;;3.17;1.90;;;;;;;;;;4959004;28;20067;-84
2021/10/07 01:00:47;;;;;;;3.20;2.00;;;;;;;;;;4948069;28;20054;-85
2021/10/07 01:03:13;;;;;;;3.45;1.92;;;;;;;;;;4947202;28;20154;-85
2021/10/07 01:05:40;;;;;;;2.28;1.80;;;;;;;;;;4953415;28;20039;-85
2021/10/07 01:08:07;;;;;;;3.28;2.08;;;;;;;;;;4947966;28;20035;-85
2021/10/07 01:10:33;;;;;;;3.35;1.88;;;;;;;;;;4950200;28;20117;-84
2021/10/07 01:13:00;;;;;;;3.72;1.90;;;;;;;;;;4951490;28;20042;-84
2021/10/07 01:15:26;;;;;;;2.67;1.80;;;;;;;;;;4950256;29;20135;-85
2021/10/07 01:17:52;;;;;;;3.08;1.60;;;;;;;;;;4949237;28;20055;-83
2021/10/07 01:20:19;;;;;;;2.40;1.80;;;;;;;;;;4947244;28;20145;-84
2021/10/07 01:22:45;;;;;;;2.10;1.63;;;;;;;;;;4951006;28;20053;-83
2021/10/07 01:25:12;;;;;;;2.90;1.83;;;;;;;;;;4945666;28;20073;-85
2021/10/07 01:27:38;;;;;;;3.40;1.73;;;;;;;;;;4964768;28;20070;-87
2021/10/07 01:30:07;;;;;;;2.60;1.80;;;;;;;;;;4947788;28;20039;-85
2021/10/07 01:32:35;;;;;;;3.03;1.75;;;;;;;;;;4948985;28;20063;-84
2021/10/07 01:35:02;;;;;;;2.20;1.60;;;;;;;;;;4944671;28;20076;-86
2021/10/07 01:37:28;;;;;;;1.88;1.55;;;;;;;;;;4948521;28;20063;-85
2021/10/07 01:39:54;;;;;;;3.47;1.67;;;;;;;;;;4959427;28;20056;-86
2021/10/07 01:42:21;;;;;;;3.22;1.88;;;;;;;;;;4952186;28;20066;-86
2021/10/07 01:44:47;;;;;;;2.67;1.60;;;;;;;;;;4948625;28;20062;-86
2021/10/07 01:47:14;;;;;;;2.85;1.70;;;;;;;;;;4949490;28;20067;-85
2021/10/07 01:49:40;;;;;;;2.40;1.83;;;;;;;;;;4964320;28;20114;-85
2021/10/07 01:52:07;;;;;;;2.78;1.70;;;;;;;;;;4943507;28;20074;-84
2021/10/07 01:54:33;;;;;;;2.58;1.75;;;;;;;;;;4953490;28;20054;-84
2021/10/07 01:56:59;;;;;;;3.22;1.83;;;;;;;;;;4949387;28;20046;-84
2021/10/07 01:59:26;;;;;;;2.70;1.73;;;;;;;;;;4947689;28;20087;-85
2021/10/07 02:01:52;;;;;;;3.33;1.90;;;;;;;;;;4962701;28;20411;-85
2021/10/07 02:04:19;;;;;;;2.63;1.85;;;;;;;;;;4939529;29;21257;-85
2021/10/07 02:06:45;;;;;;;2.80;1.80;;;;;;;;;;4945194;28;20039;-87
2021/10/07 02:09:11;;;;;;;2.55;1.80;;;;;;;;;;4942616;28;20114;-85
2021/10/07 02:11:38;;;;;;;3.05;1.80;;;;;;;;;;4945057;28;20059;-84
2021/10/07 02:14:05;;;;;;;3.72;1.95;;;;;;;;;;4943512;28;20435;-84
2021/10/07 02:16:32;;;;;;;2.08;1.70;;;;;;;;;;4948595;28;20430;-83
2021/10/07 02:18:59;;;;;;;3.05;1.80;;;;;;;;;;4958617;28;20031;-82
2021/10/07 02:21:26;;;;;;;3.33;2.03;;;;;;;;;;4958701;28;20043;-83
2021/10/07 02:23:53;;;;;;;2.45;1.92;;;;;;;;;;4955012;28;20577;-83
2021/10/07 02:26:19;;;;;;;3.85;1.95;;;;;;;;;;4951037;28;22341;-84
2021/10/07 02:28:46;;;;;;;2.80;1.75;;;;;;;;;;4953221;28;20055;-84
2021/10/07 02:31:12;;;;;;;2.17;1.67;;;;;;;;;;4951997;28;20501;-83
2021/10/07 02:33:38;;;;;;;2.58;1.80;;;;;;;;;;4955528;28;20091;-83
2021/10/07 02:36:05;;;;;;;4.18;1.98;;;;;;;;;;4948220;28;20059;-84
2021/10/07 02:38:32;;;;;;;2.80;1.90;;;;;;;;;;4949171;28;20067;-85
2021/10/07 02:40:58;;;;;;;3.28;2.13;;;;;;;;;;4964245;28;20056;-85
2021/10/07 02:43:25;;;;;;;2.88;2.00;;;;;;;;;;4951703;28;20519;-86
2021/10/07 02:45:51;;;;;;;2.85;1.80;;;;;;;;;;4956012;28;20078;-86
2021/10/07 02:48:17;;;;;;;2.85;2.05;;;;;;;;;;4953304;28;20055;-86
2021/10/07 02:50:44;;;;;;;3.78;2.00;;;;;;;;;;4953696;28;20070;-88
2021/10/07 02:53:10;;;;;;;3.83;2.28;;;;;;;;;;4949820;28;20038;-87
2021/10/07 02:55:37;;;;;;;3.88;1.98;;;;;;;;;;4954324;28;20039;-86
2021/10/07 02:58:03;;;;;;;6.55;2.20;;;;;;;;;;4952753;28;20055;-87
2021/10/07 03:00:30;;;;;;;2.40;1.80;;;;;;;;;;4951193;28;20115;-88
2021/10/07 03:02:56;;;;;;;2.83;2.00;;;;;;;;;;4950571;28;20031;-87
2021/10/07 03:05:22;;;;;;;3.17;1.80;;;;;;;;;;4954360;28;20070;-86
2021/10/07 03:07:49;;;;;;;2.70;1.85;;;;;;;;;;4951988;28;20077;-84
2021/10/07 03:10:15;;;;;;;2.63;2.00;;;;;;;;;;4952993;28;20035;-83
2021/10/07 03:12:42;;;;;;;3.30;2.10;;;;;;;;;;4951136;28;20043;-83
2021/10/07 03:15:08;;;;;;;4.45;2.35;;;;;;;;;;4949413;28;20078;-83
2021/10/07 03:17:36;;;;;;;3.35;2.10;;;;;;;;;;4950323;28;20064;-84
2021/10/07 03:20:03;;;;;;;3.53;2.15;;;;;;;;;;4949158;28;20078;-83
2021/10/07 03:22:29;;;;;;;2.50;2.00;;;;;;;;;;4953320;28;20079;-84
2021/10/07 03:24:55;;;;;;;3.20;1.90;;;;;;;;;;4949096;28;20063;-83
2021/10/07 03:27:22;;;;;;;2.60;1.90;;;;;;;;;;4953845;28;20079;-84
2021/10/07 03:29:48;;;;;;;3.10;1.90;;;;;;;;;;4943330;28;20060;-83
2021/10/07 03:32:15;;;;;;;3.85;2.20;;;;;;;;;;4946449;28;20538;-83
2021/10/07 03:34:41;;;;;;;3.03;2.20;;;;;;;;;;4952001;28;20084;-83
2021/10/07 03:37:07;;;;;;;4.05;2.28;;;;;;;;;;4942164;28;20071;-84
2021/10/07 03:39:34;;;;;;;2.95;2.03;;;;;;;;;;4941653;28;20059;-84
2021/10/07 03:42:00;;;;;;;3.05;1.80;;;;;;;;;;4954801;28;20094;-82
2021/10/07 03:44:28;;;;;;;3.08;1.98;;;;;;;;;;4952397;28;20048;-84
2021/10/07 03:46:54;;;;;;;3.10;2.00;;;;;;;;;;4944925;28;20528;-82
2021/10/07 03:49:21;;;;;;;3.58;1.95;;;;;;;;;;4946689;28;20062;-84
2021/10/07 03:51:47;;;;;;;3.85;2.13;;;;;;;;;;4948780;28;20040;-83
2021/10/07 03:54:13;;;;;;;2.80;2.10;;;;;;;;;;4942073;28;20138;-82
2021/10/07 03:56:40;;;;;;;3.35;2.28;;;;;;;;;;4949591;28;20137;-83
2021/10/07 03:59:07;;;;;;;3.00;2.22;;;;;;;;;;4944940;28;20063;-84
2021/10/07 04:01:33;;;;;;;2.50;1.98;;;;;;;;;;4950649;28;20063;-80
2021/10/07 04:04:00;;;;;;;3.20;2.20;;;;;;;;;;4945683;28;20066;-81
2021/10/07 04:06:26;;;;;;;2.95;1.88;;;;;;;;;;4952762;28;20063;-82
2021/10/07 04:08:52;;;;;;;2.58;1.52;;;;;;;;;;4950809;28;20542;-82
2021/10/07 04:11:20;;;;;;;2.97;1.90;;;;;;;;;;4944010;28;20051;-80
2021/10/07 04:13:47;;;;;;;2.95;1.95;;;;;;;;;;4946804;28;20058;-81
2021/10/07 04:16:14;;;;;;;2.88;2.00;;;;;;;;;;4947204;28;20511;-79
2021/10/07 04:18:40;;;;;;;2.47;1.90;;;;;;;;;;4948924;28;20070;-81
2021/10/07 04:21:07;;;;;;;2.30;1.90;;;;;;;;;;4939757;28;20071;-79
2021/10/07 04:23:33;;;;;;;2.45;2.00;;;;;;;;;;4945738;28;20198;-79
2021/10/07 04:26:00;;;;;;;2.88;2.17;;;;;;;;;;4949367;28;20503;-81
2021/10/07 04:28:26;;;;;;;2.78;2.08;;;;;;;;;;4943879;28;20135;-80
2021/10/07 04:30:52;;;;;;;3.55;1.95;;;;;;;;;;4956844;28;20066;-81
2021/10/07 04:33:19;;;;;;;2.58;1.80;;;;;;;;;;4950172;28;20104;-79
2021/10/07 04:35:45;;;;;;;5.07;2.60;;;;;;;;;;4968751;28;20066;-82
2021/10/07 04:38:12;;;;;;;4.88;2.30;;;;;;;;;;4957674;28;20082;-85
2021/10/07 04:40:38;;;;;;;3.10;1.98;;;;;;;;;;4965987;28;21680;-85
2021/10/07 04:43:05;;;;;;;2.85;2.08;;;;;;;;;;4966460;28;20084;-84
2021/10/07 04:45:31;;;;;;;3.65;1.90;;;;;;;;;;4968416;28;20085;-84
2021/10/07 04:47:58;;;;;;;3.28;1.90;;;;;;;;;;4967325;28;20062;-84
2021/10/07 04:50:24;;;;;;;3.50;2.08;;;;;;;;;;4936445;28;20058;-84
2021/10/07 04:52:50;;;;;;;4.10;2.40;;;;;;;;;;4957723;28;20067;-84
2021/10/07 04:55:17;;;;;;;3.75;2.00;;;;;;;;;;4966929;28;20055;-83
2021/10/07 04:57:43;;;;;;;5.05;2.47;;;;;;;;;;4971412;28;20085;-84
2021/10/07 05:00:10;;;;;;;3.13;2.10;;;;;;;;;;4965211;28;20063;-83
2021/10/07 05:02:37;;;;;;;2.60;2.00;;;;;;;;;;4972772;28;20502;-84
2021/10/07 05:05:04;;;;;;;3.20;2.42;;;;;;;;;;4974357;28;20042;-84
2021/10/07 05:07:31;;;;;;;3.08;2.10;;;;;;;;;;4971753;28;20049;-85
2021/10/07 05:09:57;;;;;;;2.88;2.03;;;;;;;;;;4969138;28;20093;-85
2021/10/07 05:12:23;;;;;;;3.63;1.90;;;;;;;;;;4965393;28;20106;-85
2021/10/07 05:14:50;;;;;;;2.65;1.85;;;;;;;;;;4965152;28;20061;-84
2021/10/07 05:17:16;;;;;;;3.20;2.20;;;;;;;;;;4967730;28;20066;-84
2021/10/07 05:19:43;;;;;;;3.03;2.00;;;;;;;;;;4955405;28;20472;-84
2021/10/07 05:22:09;;;;;;;2.58;1.50;;;;;;;;;;4952404;28;20036;-83
2021/10/07 05:24:35;;;;;;;2.80;1.83;;;;;;;;;;4921840;29;20064;-84
2021/10/07 05:27:02;;;;;;;2.50;1.70;;;;;;;;;;4931842;29;20077;-84
2021/10/07 05:29:32;;;;;;;2.47;1.80;;;;;;;;;;4924034;29;20345;-83
2021/10/07 05:31:59;;;;;;;3.08;1.90;;;;;;;;;;4931430;29;20036;-87
2021/10/07 05:34:25;;;;;;;3.25;1.50;;;;;;;;;;4916824;29;20126;-85
2021/10/07 05:36:51;;;;;;;2.47;1.60;;;;;;;;;;4930277;29;20065;-84
2021/10/07 05:39:18;;;;;;;3.33;1.67;;;;;;;;;;4929821;29;20059;-84
2021/10/07 05:41:44;;;;;;;2.78;1.40;;;;;;;;;;4927581;29;20059;-83
2021/10/07 05:44:11;;;;;;;2.20;1.35;;;;;;;;;;4927508;29;20441;-85
2021/10/07 05:46:38;;;;;;;2.15;1.63;;;;;;;;;;4924238;29;20062;-88
2021/10/07 05:49:05;;;;;;;2.70;1.73;;;;;;;;;;4936175;29;20268;-89
2021/10/07 05:51:32;;;;;;;2.42;1.63;;;;;;;;;;4926050;29;20112;-86
2021/10/07 05:53:58;;;;;;;2.25;1.63;;;;;;;;;;4923177;29;20032;-86
2021/10/07 05:56:25;;;;;;;2.60;1.65;;;;;;;;;;4922728;29;20123;-85
2021/10/07 05:58:51;;;;;;;1.98;1.30;;;;;;;;;;4931308;29;20068;-87
2021/10/07 06:01:18;;;;;;;2.45;1.60;;;;;;;;;;4931243;29;20654;-86
2021/10/07 06:03:44;;;;;;;2.22;1.27;;;;;;;;;;4926625;29;20059;-88
2021/10/07 06:06:11;;;;;;;2.72;1.30;;;;;;;;;;4933506;29;20063;-87
2021/10/07 06:08:37;;;;;;;4.50;2.05;;;;;;;;;;4922531;29;20080;-87
2021/10/07 06:11:06;;;;;;;2.83;1.40;;;;;;;;;;4910475;29;20051;-86
2021/10/07 06:13:33;;;;;;;3.90;1.60;;;;;;;;;;4930939;29;20059;-86
2021/10/07 06:15:59;;;;;;;2.30;1.60;;;;;;;;;;4930769;29;20031;-87
2021/10/07 06:18:26;;;;;;;2.08;1.50;;;;;;;;;;4932095;29;20032;-86
2021/10/07 06:20:52;;;;;;;2.30;1.63;;;;;;;;;;4929708;29;20039;-88
2021/10/07 06:23:19;;;;;;;1.92;1.40;;;;;;;;;;4950589;28;20062;-86
2021/10/07 06:25:45;;;;;;;2.78;1.50;;;;;;;;;;4956282;28;20068;-87
2021/10/07 06:28:11;;;;;;;2.00;1.30;;;;;;;;;;4950912;28;20062;-86
2021/10/07 06:30:40;;;;;;;2.58;1.58;;;;;;;;;;4952835;28;20050;-85
2021/10/07 06:33:07;;;;;;;2.22;1.40;;;;;;;;;;4937406;28;20454;-87
2021/10/07 06:35:33;;;;;;;2.25;1.10;;;;;;;;;;4971112;28;20038;-86
2021/10/07 06:37:59;;;;;;;3.65;1.52;;;;;;;;;;4963372;28;20067;-86
2021/10/07 06:40:26;;;;;;;2.65;1.42;;;;;;;;;;4965642;28;20054;-86
2021/10/07 06:42:52;;;;;;;1.80;1.40;;;;;;;;;;4968933;28;20058;-86
2021/10/07 06:45:19;;;;;;;2.30;1.50;;;;;;;;;;4957579;28;20023;-85
2021/10/07 06:47:45;;;;;;;2.03;1.60;;;;;;;;;;4969566;28;20069;-86
2021/10/07 06:50:12;;;;;;;2.08;1.60;;;;;;;;;;4969160;28;20042;-86
2021/10/07 06:52:42;;;;;;;1.90;1.52;;;;;;;;;;4953588;28;20066;-86
2021/10/07 06:55:10;;;;;;;2.97;1.40;;;;;;;;;;4963048;28;20066;-86
2021/10/07 06:57:37;;;;;;;2.28;1.38;;;;;;;;;;4962903;28;20079;-85
2021/10/07 07:00:04;;;;;;;3.05;1.40;;;;;;;;;;4963476;28;20085;-85
2021/10/07 07:02:31;;;;;;;2.92;1.40;;;;;;;;;;4965658;28;20094;-85
2021/10/07 07:04:58;;;;;;;2.10;1.27;;;;;;;;;;4971501;28;20049;-86
2021/10/07 07:07:25;;;;;;;2.13;1.20;;;;;;;;;;4967242;28;20078;-84
2021/10/07 07:09:52;;;;;;;2.35;1.45;;;;;;;;;;4956229;28;20039;-85
2021/10/07 07:12:18;;;;;;;2.55;1.27;;;;;;;;;;4969341;28;20062;-85
2021/10/07 07:14:47;;;;;;;2.78;1.30;;;;;;;;;;4961837;28;20675;-85
2021/10/07 07:17:15;;;;;;;2.40;1.35;;;;;;;;;;4959974;28;20101;-85
2021/10/07 07:19:43;;;;;;;1.92;1.52;;;;;;;;;;4964763;28;20062;-83
2021/10/07 07:22:09;;;;;;;1.70;1.25;;;;;;;;;;4964096;28;20031;-84
2021/10/07 07:24:36;;;;;;;1.88;1.33;;;;;;;;;;4970625;28;20075;-86
2021/10/07 07:27:03;;;;;;;2.03;1.40;;;;;;;;;;4969167;28;20365;-85
2021/10/07 07:29:29;;;;;;;3.80;1.30;;;;;;;;;;4974581;28;20058;-84
2021/10/07 07:31:56;;;;;;;2.33;1.50;;;;;;;;;;4972251;28;20070;-83
2021/10/07 07:34:22;;;;;;;1.92;1.23;;;;;;;;;;4972886;28;20527;-84
2021/10/07 07:36:48;;;;;;;1.92;1.15;;;;;;;;;;4969328;28;20069;-84
2021/10/07 07:39:15;;;;;;;1.95;1.40;;;;;;;;;;4970719;28;20090;-85
2021/10/07 07:41:41;;;;;;;2.15;1.58;;;;;;;;;;4967405;28;20062;-82
2021/10/07 07:44:08;;;;;;;2.50;1.20;;;;;;;;;;4971957;28;20503;-82
2021/10/07 07:46:36;;;;;;;2.22;1.30;;;;;;;;;;4969737;28;20059;-84
2021/10/07 07:49:04;;;;;;;1.77;1.20;;;;;;;;;;4966247;28;20087;-88
2021/10/07 07:51:32;;;;;;;2.40;1.40;;;;;;;;;;4975548;28;20047;-76
2021/10/07 07:53:58;;;;;;;1.55;1.20;;;;;;;;;;4963248;28;20082;-77
2021/10/07 07:56:25;;;;;;;3.03;1.30;;;;;;;;;;4953187;28;20120;-74
2021/10/07 07:58:53;;;;;;;2.00;1.30;;;;;;;;;;4966248;28;20050;-75
2021/10/07 08:01:20;;;;;;;3.10;1.30;;;;;;;;;;4966556;28;20050;-76
2021/10/07 08:03:46;;;;;;;1.90;1.30;;;;;;;;;;4971602;28;20058;-75
2021/10/07 08:06:13;;;;;;;1.80;1.20;;;;;;;;;;4963454;28;20073;-76
2021/10/07 08:08:39;;;;;;;2.10;1.25;;;;;;;;;;4965633;28;20093;-75
2021/10/07 08:11:05;;;;;;;2.20;1.35;;;;;;;;;;4969557;28;20063;-76
2021/10/07 08:13:32;;;;;;;2.05;1.20;;;;;;;;;;4960203;28;20760;-75
2021/10/07 08:15:58;;;;;;;2.67;1.30;;;;;;;;;;4972666;28;20063;-76
2021/10/07 08:18:25;;;;;;;2.63;1.33;;;;;;;;;;4965357;28;20062;-75
2021/10/07 08:20:53;;;;;;;1.83;1.27;;;;;;;;;;4965657;28;20420;-76
2021/10/07 08:23:23;;;;;;;2.42;1.10;;;;;;;;;;4965772;28;20062;-77
2021/10/07 08:25:50;;;;;;;1.83;1.27;;;;;;;;;;4963678;28;20073;-74
2021/10/07 08:28:16;;;;;;;1.80;1.13;;;;;;;;;;4962652;28;20448;-77
2021/10/07 08:30:43;;;;;;;2.00;1.20;;;;;;;;;;4965161;28;20035;-75
2021/10/07 08:33:09;;;;;;;1.65;1.17;;;;;;;;;;4968590;28;20063;-75
2021/10/07 08:35:35;;;;;;;1.67;0.98;;;;;;;;;;4962637;28;20099;-76
2021/10/07 08:38:02;;;;;;;1.90;1.15;;;;;;;;;;4960849;28;20062;-76
2021/10/07 08:40:28;;;;;;;1.40;1.10;;;;;;;;;;4962903;28;20070;-76
2021/10/07 08:42:55;;;;;;;2.85;1.25;;;;;;;;;;4965154;28;20066;-76
2021/10/07 08:45:21;;;;;;;1.67;1.08;;;;;;;;;;4966099;28;20429;-76
2021/10/07 08:47:50;;;;;;;1.52;1.00;;;;;;;;;;4965253;28;20652;-76
2021/10/07 08:50:19;;;;;;;2.13;1.30;;;;;;;;;;4951761;28;20058;-76
2021/10/07 08:52:45;;;;;;;1.77;1.23;;;;;;;;;;4968567;28;20093;-76
2021/10/07 08:55:12;;;;;;;1.08;0.88;;;;;;;;;;4968498;28;20062;-75
2021/10/07 08:57:39;;;;;;;1.63;1.10;;;;;;;;;;4964520;28;20068;-74
2021/10/07 09:00:07;;;;;;;1.75;1.20;;;;;;;;;;4958973;28;20118;-74
2021/10/07 09:02:33;;;;;;;2.15;0.88;;;;;;;;;;4968469;28;20066;-75
2021/10/07 09:05:07;;;;;;;1.73;1.10;;;;;;;;;;4966744;28;20451;-75
2021/10/07 09:07:34;;;;;;;2.15;1.15;;;;;;;;;;4947778;28;20116;-77
2021/10/07 09:10:00;;;;;;;1.23;0.85;;;;;;;;;;4959451;28;20551;-74
2021/10/07 09:12:28;;;;;;;1.55;1.05;;;;;;;;;;4966352;28;20042;-75
2021/10/07 09:14:55;;;;;;;1.58;1.23;;;;;;;;;;4973044;28;20190;-75
2021/10/07 09:17:22;;;;;;;1.42;0.90;;;;;;;;;;4968121;28;20417;-76
2021/10/07 09:19:48;;;;;;;1.73;1.00;;;;;;;;;;4965051;28;20069;-74
2021/10/07 09:22:15;;;;;;;1.48;0.90;;;;;;;;;;4967729;28;20089;-75
2021/10/07 09:24:50;;;;;;;1.42;1.00;;;;;;;;;;4966014;28;20396;-76
2021/10/07 09:27:20;;;;;;;1.40;0.90;;;;;;;;;;4959484;28;20070;-75
2021/10/07 09:29:54;;;;;;;1.48;0.95;;;;;;;;;;4967477;28;20070;-76
2021/10/07 09:32:43;;;;;;;1.70;1.30;;;;;;;;;;4962657;28;20554;-74
2021/10/07 09:35:11;;;;;;;1.48;1.10;;;;;;;;;;4959074;28;20126;-76
2021/10/07 09:37:38;;;;;;;1.52;1.05;;;;;;;;;;4965453;28;20646;-77
2021/10/07 09:40:13;;;;;;;1.30;0.82;;;;;;;;;;4947966;28;20133;-77
2021/10/07 09:42:40;;;;;;;1.83;1.25;;;;;;;;;;4964207;28;20063;-74
2021/10/07 09:45:08;;;;;;;1.92;1.20;;;;;;;;;;4966323;28;20050;-74
2021/10/07 09:47:36;;;;;;;1.60;1.00;;;;;;;;;;4967529;28;20082;-74
2021/10/07 09:50:15;;;;;;;1.83;0.95;;;;;;;;;;4962614;28;20077;-73
2021/10/07 09:52:43;;;;;;;1.50;1.10;;;;;;;;;;4965602;28;20031;-74
2021/10/07 09:55:13;;;;;;;1.98;1.02;;;;;;;;;;4961020;28;20054;-76
2021/10/07 09:57:52;;;;;;;2.22;1.27;;;;;;;;;;4967591;28;20055;-74
2021/10/07 10:00:19;;;;;;;1.40;1.00;;;;;;;;;;4963636;28;20059;-75
2021/10/07 10:02:45;;;;;;;1.35;0.88;;;;;;;;;;4968170;28;20054;-74
2021/10/07 10:05:13;;;;;;;1.98;1.10;;;;;;;;;;4966368;28;20093;-75
2021/10/07 10:07:43;;;;;;;4.63;1.65;;;;;;;;;;4967880;28;20067;-75
2021/10/07 10:10:11;;;;;;;3.00;1.10;;;;;;;;;;4962366;28;20109;-77
2021/10/07 10:12:37;;;;;;;4.45;1.40;;;;;;;;;;4967135;28;20066;-76
2021/10/07 10:15:04;;;;;;;2.00;1.10;;;;;;;;;;4966074;28;20104;-76
2021/10/07 10:17:32;;;;;;;2.85;1.27;;;;;;;;;;4965135;28;20122;-75
2021/10/07 10:19:59;;;;;;;2.38;1.20;;;;;;;;;;4964793;28;20080;-78
2021/10/07 10:22:26;;;;;;;2.67;0.93;;;;;;;;;;4964167;28;20133;-77
2021/10/07 10:24:52;;;;;;;1.83;1.20;;;;;;;;;;4962554;28;20083;-77
2021/10/07 10:27:19;;;;;;;2.67;1.15;;;;;;;;;;4958723;28;20058;-77
2021/10/07 10:29:46;;;;;;;6.45;1.73;;;;;;;;;;4967619;28;20043;-77
2021/10/07 10:32:12;;;;;;;5.53;1.40;;;;;;;;;;4968445;28;20031;-77
2021/10/07 10:34:44;;;;;;;4.25;1.73;;;;;;;;;;4970032;28;20050;-76
2021/10/07 10:37:11;;;;;;;2.88;1.27;;;;;;;;;;4971870;28;20094;-77
2021/10/07 10:39:45;;;;;;;3.13;1.50;;;;;;;;;;4973643;28;20077;-76
2021/10/07 10:42:17;;;;;;;5.32;1.90;;;;;;;;;;4964320;28;20066;-75
2021/10/07 10:44:46;;;;;;;2.50;1.40;;;;;;;;;;4971228;28;20054;-76
2021/10/07 10:47:12;;;;;;;3.90;1.50;;;;;;;;;;4972907;28;20074;-76
2021/10/07 10:49:39;;;;;;;4.70;1.50;;;;;;;;;;4965219;28;20094;-75
2021/10/07 10:52:15;;;;;;;3.08;1.40;;;;;;;;;;4953904;28;20063;-77
2021/10/07 10:54:45;;;;;;;3.90;1.35;;;;;;;;;;4972481;28;20034;-76
2021/10/07 10:57:32;;;;;;;1.85;1.25;;;;;;;;;;4969025;28;20110;-76
2021/10/07 11:00:19;;;;;;;3.60;1.40;;;;;;;;;;4967884;28;20058;-76
2021/10/07 11:02:46;;;;;;;1.88;1.20;;;;;;;;;;4967936;28;20047;-76
2021/10/07 11:05:19;;;;;;;5.50;1.80;;;;;;;;;;4968251;28;20032;-76
2021/10/07 11:07:46;;;;;;;2.33;1.40;;;;;;;;;;4955520;28;20133;-76
2021/10/07 11:10:27;;;;;;;3.35;1.55;;;;;;;;;;4972096;28;20050;-76
2021/10/07 11:12:58;;;;;;;4.93;1.63;;;;;;;;;;4970254;28;20050;-75
2021/10/07 11:15:29;;;;;;;4.85;1.40;;;;;;;;;;4971646;28;20596;-75
2021/10/07 11:17:56;;;;;;;2.75;1.40;;;;;;;;;;4972335;28;20035;-75
2021/10/07 11:20:30;;;;;;;3.15;1.40;;;;;;;;;;4970042;28;20282;-76
2021/10/07 11:23:07;;;;;;;;;;;;;;;;;;;;;
2021/10/07 11:25:35;;;;;;;3.22;1.45;;;;;;;;;;4966375;28;20190;-77
2021/10/07 11:28:01;;;;;;;2.53;1.40;;;;;;;;;;4970816;28;20070;-76
2021/10/07 11:30:30;;;;;;;3.85;1.35;;;;;;;;;;4961405;28;20112;-75
2021/10/07 11:33:00;;;;;;;2.60;1.45;;;;;;;;;;4971267;28;20059;-77
2021/10/07 11:35:27;;;;;;;3.50;1.40;;;;;;;;;;4963266;28;20121;-76
2021/10/07 11:37:54;;;;;;;2.28;1.10;;;;;;;;;;4953360;28;22065;-76
2021/10/07 11:40:38;;;;;;;3.38;1.40;;;;;;;;;;4970969;28;20116;-75
2021/10/07 11:43:06;;;;;;;1.92;1.23;;;;;;;;;;4969963;28;20490;-75
2021/10/07 11:45:37;;;;;;;3.33;1.48;;;;;;;;;;4971557;28;20144;-76
2021/10/07 11:48:07;;;;;;;3.50;1.30;;;;;;;;;;4968226;28;20050;-76
2021/10/07 11:50:37;;;;;;;2.33;1.30;;;;;;;;;;4967631;28;20066;-76
2021/10/07 11:53:04;;;;;;;2.25;1.33;;;;;;;;;;4966605;28;20502;-77
2021/10/07 11:55:30;;;;;;;2.88;1.30;;;;;;;;;;4967228;28;20079;-76
2021/10/07 11:57:58;;;;;;;3.58;1.38;;;;;;;;;;4969046;28;20039;-77
2021/10/07 12:00:44;;;;;;;3.70;1.20;;;;;;;;;;4975087;28;20035;-76
2021/10/07 12:03:23;;;;;;;4.30;1.30;;;;;;;;;;4957042;28;20066;-76
2021/10/07 12:05:53;;;;;;;2.15;1.20;;;;;;;;;;4963277;28;20058;-76
2021/10/07 12:08:20;;;;;;;2.67;1.30;;;;;;;;;;4968681;28;20121;-77
2021/10/07 12:10:48;;;;;;;1.90;1.00;;;;;;;;;;4972427;28;20518;-76
2021/10/07 12:13:26;;;;;;;1.70;1.20;;;;;;;;;;4960338;28;20117;-76
2021/10/07 12:15:54;;;;;;;2.47;1.30;;;;;;;;;;4963032;28;20055;-75
2021/10/07 12:18:24;;;;;;;3.45;1.40;;;;;;;;;;4962258;28;20112;-77
2021/10/07 12:21:07;;;;;;;3.28;1.30;;;;;;;;;;4957268;28;20035;-77
2021/10/07 12:23:46;;;;;;;2.13;1.20;;;;;;;;;;4966934;28;21585;-76
2021/10/07 12:26:13;;;;;;;3.40;1.50;;;;;;;;;;4961723;28;20121;-77
2021/10/07 12:28:43;;;;;;;2.85;1.50;;;;;;;;;;4968294;28;20063;-75
2021/10/07 12:31:09;;;;;;;2.75;1.25;;;;;;;;;;4965483;28;20050;-76
2021/10/07 12:33:35;;;;;;;2.08;1.15;;;;;;;;;;4965480;28;20443;-76
2021/10/07 12:36:07;;;;;;;3.17;1.27;;;;;;;;;;4965629;28;20058;-76
2021/10/07 12:38:50;;;;;;;1.88;1.13;;;;;;;;;;4971723;28;20435;-77
2021/10/07 12:41:16;;;;;;;1.80;1.20;;;;;;;;;;4967058;28;20050;-75
2021/10/07 12:44:01;;;;;;;2.40;1.48;;;;;;;;;;4968149;28;20027;-76
2021/10/07 12:46:28;;;;;;;3.40;1.10;;;;;;;;;;4966903;28;20140;-76
2021/10/07 12:48:58;;;;;;;1.85;1.10;;;;;;;;;;4962559;28;20063;-75
2021/10/07 12:51:27;;;;;;;1.67;1.00;;;;;;;;;;4968032;28;20359;-75
2021/10/07 12:53:54;;;;;;;2.10;1.50;;;;;;;;;;4958527;28;20050;-76
2021/10/07 12:56:32;;;;;;;2.95;1.65;;;;;;;;;;4960166;28;20538;-77
2021/10/07 12:59:02;;;;;;;2.92;1.63;;;;;;;;;;4963889;28;20066;-77
2021/10/07 13:01:29;;;;;;;3.45;1.85;;;;;;;;;;4962832;28;20611;-77
2021/10/07 13:04:15;;;;;;;3.95;1.58;;;;;;;;;;4964430;28;20051;-77
2021/10/07 13:06:42;;;;;;;1.35;0.90;;;;;;;;;;4963871;28;22114;-77
2021/10/07 13:09:16;;;;;;;2.65;1.05;;;;;;;;;;4966746;28;20470;-77
2021/10/07 13:11:43;;;;;;;2.75;1.20;;;;;;;;;;4962932;28;20063;-76
2021/10/07 13:14:10;;;;;;;2.45;1.13;;;;;;;;;;4959649;28;20051;-77
2021/10/07 13:16:36;;;;;;;2.20;1.40;;;;;;;;;;4963475;28;20038;-77
2021/10/07 13:19:03;;;;;;;2.13;1.20;;;;;;;;;;4966467;28;20577;-76
2021/10/07 13:21:29;;;;;;;2.70;1.30;;;;;;;;;;4967035;28;20087;-76
2021/10/07 13:23:59;;;;;;;3.85;1.38;;;;;;;;;;4968952;28;20034;-77
2021/10/07 13:26:32;;;;;;;3.80;1.30;;;;;;;;;;4963723;28;21292;-77
2021/10/07 13:29:02;;;;;;;2.55;0.93;;;;;;;;;;4958116;28;20451;-76
2021/10/07 13:31:28;;;;;;;3.50;1.38;;;;;;;;;;4961128;28;20142;-77
2021/10/07 13:33:55;;;;;;;1.80;1.23;;;;;;;;;;4948725;28;20098;-76
2021/10/07 13:36:21;;;;;;;2.47;1.10;;;;;;;;;;4958345;28;20082;-75
2021/10/07 13:38:48;;;;;;;2.38;1.30;;;;;;;;;;4964888;28;20090;-76
2021/10/07 13:41:14;;;;;;;2.67;1.20;;;;;;;;;;4961766;28;20062;-81
2021/10/07 13:43:40;;;;;;;2.03;1.17;;;;;;;;;;4947882;28;20070;-81
2021/10/07 13:46:07;;;;;;;3.03;1.33;;;;;;;;;;4965020;28;20057;-80
2021/10/07 13:48:33;;;;;;;3.22;1.20;;;;;;;;;;4973114;28;20046;-80
2021/10/07 13:51:03;;;;;;;2.47;1.40;;;;;;;;;;4978340;28;20026;-80
2021/10/07 13:53:29;;;;;;;2.13;1.20;;;;;;;;;;4982689;28;20042;-80
2021/10/07 13:55:55;;;;;;;3.75;1.20;;;;;;;;;;4973159;28;20173;-80
2021/10/07 13:58:22;;;;;;;1.55;1.20;;;;;;;;;;4968040;28;20062;-79
2021/10/07 14:00:48;;;;;;;2.05;1.10;;;;;;;;;;4961391;28;20675;-80
2021/10/07 14:03:14;;;;;;;2.05;1.10;;;;;;;;;;4966277;28;20073;-80
2021/10/07 14:05:44;;;;;;;3.33;1.25;;;;;;;;;;4963940;28;20062;-80
2021/10/07 14:08:11;;;;;;;1.65;1.02;;;;;;;;;;4967189;28;20059;-79
2021/10/07 14:10:38;;;;;;;1.38;1.05;;;;;;;;;;4967929;28;20121;-80
2021/10/07 14:13:04;;;;;;;3.00;1.25;;;;;;;;;;4968043;28;20498;-80
2021/10/07 14:15:31;;;;;;;2.83;1.10;;;;;;;;;;4967736;28;20066;-81
2021/10/07 14:17:59;;;;;;;1.95;1.10;;;;;;;;;;4969020;28;20058;-80
2021/10/07 14:20:26;;;;;;;1.75;1.10;;;;;;;;;;4955538;28;20058;-79
2021/10/07 14:22:52;;;;;;;2.00;1.00;;;;;;;;;;4965344;28;20073;-77
2021/10/07 14:25:21;;;;;;;2.35;1.10;;;;;;;;;;4965454;28;20528;-79
2021/10/07 14:27:48;;;;;;;1.63;1.08;;;;;;;;;;4970801;28;20062;-79
2021/10/07 14:30:15;;;;;;;3.85;1.20;;;;;;;;;;4966626;28;20043;-78
2021/10/07 14:32:41;;;;;;;2.33;1.30;;;;;;;;;;4967717;28;20533;-78
2021/10/07 14:35:08;;;;;;;2.33;1.20;;;;;;;;;;4968833;28;20089;-78
2021/10/07 14:37:36;;;;;;;2.60;1.45;;;;;;;;;;4966007;28;20069;-79
2021/10/07 14:40:04;;;;;;;2.78;1.00;;;;;;;;;;4963687;28;20074;-79
2021/10/07 14:42:30;;;;;;;1.65;1.00;;;;;;;;;;4966290;28;20087;-79
2021/10/07 14:44:57;;;;;;;1.33;0.98;;;;;;;;;;4952833;28;20123;-78
2021/10/07 14:47:24;;;;;;;3.28;1.10;;;;;;;;;;4965303;28;21286;-78
2021/10/07 14:49:50;;;;;;;2.45;1.00;;;;;;;;;;4962404;28;20086;-79
2021/10/07 14:52:17;;;;;;;2.72;1.20;;;;;;;;;;4963248;28;20774;-79